LETO/TOJ METAR and TAF weather

Enter ICAO airport designator
Station Type Date Time Source
LETO METAR 2022/06/28 08:30 UTC NOAA

LETO 280830Z 07001KT CAVOK 22/09 Q1021 NOSIG


Station Type Date Time Source
LETO Decoded METAR 2022/06/28 08:30 UTC NOAA

Madrid / Torrejon, Spain (LETO) 40-29N 003-27W 611M
Jun 28, 2022 - 04:30 AM EDT / 2022.06.28 0830 UTC
Wind: from the ENE (070 degrees) at 1 MPH (1 KT):0
Visibility: greater than 7 mile(s):0
Temperature: 71 F (22 C)
Dew Point: 48 F (9 C)
Relative Humidity: 43%
Pressure (altimeter): 30.15 in. Hg (1021 hPa)
ob: LETO 280830Z 07001KT CAVOK 22/09 Q1021 NOSIG
cycle: 8

Station Type Date Time Source
LETO TAF 2022/06/28 06:27 UTC NOAA

TAF LETO 280500Z 2806/2906 02007KT CAVOK TX34/2815Z TN13/2806Z

Example: see airport list